createdAt,value
2023-05-02T00:02:18.816Z,22.10
2023-05-02T00:07:22.198Z,21.87
2023-05-02T00:12:25.697Z,21.13
2023-05-02T00:22:33.769Z,21.08
2023-05-02T00:27:37.209Z,21.63
2023-05-02T00:32:42.116Z,22.57
2023-05-02T00:37:45.610Z,22.63
2023-05-02T00:42:48.998Z,23.23
2023-05-02T00:47:53.897Z,23.90
2023-05-02T00:52:57.490Z,25.58
2023-05-02T00:58:01.215Z,24.40
2023-05-02T01:03:17.002Z,24.73
2023-05-02T01:08:31.499Z,25.53
2023-05-02T01:13:37.351Z,25.43
2023-05-02T01:18:43.728Z,26.25
2023-05-02T01:23:54.663Z,24.90
2023-05-02T01:29:01.328Z,24.10
2023-05-02T01:34:08.077Z,23.63
2023-05-02T01:39:12.305Z,23.27
2023-05-02T01:44:18.338Z,24.45
2023-05-02T01:49:24.594Z,24.60
2023-05-02T01:54:28.650Z,24.42
2023-05-02T01:59:35.544Z,25.27
2023-05-02T02:04:40.899Z,26.33
2023-05-02T02:09:46.642Z,27.33
2023-05-02T02:14:58.087Z,31.30
2023-05-02T02:20:04.544Z,33.43
2023-05-02T02:25:11.644Z,33.20
2023-05-02T02:30:17.186Z,32.53
2023-05-02T02:35:21.240Z,33.67
2023-05-02T02:40:31.126Z,31.57
2023-05-02T02:45:40.244Z,30.80
2023-05-02T02:50:53.546Z,28.73
2023-05-02T02:56:01.798Z,30.47
2023-05-02T03:01:10.887Z,29.75
2023-05-02T03:06:15.511Z,29.70
2023-05-02T03:11:19.280Z,27.65
2023-05-02T03:16:42.884Z,29.42
2023-05-02T03:21:51.240Z,28.70
2023-05-02T03:26:57.520Z,31.95
2023-05-02T03:32:06.095Z,33.72
2023-05-02T03:37:10.417Z,40.05
2023-05-02T03:42:14.122Z,34.25
2023-05-02T03:47:19.509Z,32.08
2023-05-02T03:52:23.320Z,29.40
2023-05-02T03:57:31.702Z,29.90
2023-05-02T04:02:37.352Z,33.85
2023-05-02T04:07:42.711Z,27.77
2023-05-02T04:12:46.510Z,28.75
2023-05-02T04:17:52.342Z,29.63
2023-05-02T04:22:57.414Z,30.05
2023-05-02T04:28:02.021Z,29.40
2023-05-02T04:33:08.000Z,26.87
2023-05-02T04:38:13.710Z,27.83
2023-05-02T04:43:19.549Z,27.33
2023-05-02T04:48:28.787Z,28.35
2023-05-02T04:53:32.277Z,30.97
2023-05-02T04:58:36.348Z,34.05
2023-05-02T05:03:45.377Z,38.05
2023-05-02T05:08:50.751Z,36.63
2023-05-02T05:13:54.195Z,35.23
2023-05-02T05:19:00.079Z,33.40
2023-05-02T05:24:03.557Z,35.78
2023-05-02T05:29:07.815Z,35.20
2023-05-02T05:34:18.205Z,34.20
2023-05-02T05:39:25.607Z,31.33
2023-05-02T05:44:31.768Z,31.73
2023-05-02T05:49:38.834Z,35.20
2023-05-02T05:54:45.198Z,33.70
2023-05-02T05:59:48.986Z,33.63
2023-05-02T06:04:54.811Z,36.10
2023-05-02T06:10:01.244Z,36.05
2023-05-02T06:15:08.300Z,33.42
2023-05-02T06:20:14.408Z,31.67
2023-05-02T06:25:19.022Z,29.05
2023-05-02T06:30:22.418Z,27.38
2023-05-02T06:35:27.151Z,28.08
2023-05-02T06:40:30.476Z,25.52
2023-05-02T06:45:33.792Z,26.20
2023-05-02T06:50:38.570Z,25.40
2023-05-02T06:55:42.246Z,21.00
2023-05-02T07:00:45.729Z,25.00
2023-05-02T07:05:50.724Z,20.10
2023-05-02T07:10:54.003Z,16.33
2023-05-02T07:15:57.391Z,17.27
2023-05-02T07:21:02.371Z,15.10
2023-05-02T07:26:07.154Z,14.23
2023-05-02T07:31:10.468Z,14.00
2023-05-02T07:36:15.196Z,13.20
2023-05-02T07:41:18.600Z,13.70
2023-05-02T07:46:22.163Z,11.77
2023-05-02T07:51:27.341Z,10.48
2023-05-02T07:56:31.621Z,10.43
2023-05-02T08:01:34.974Z,10.77
2023-05-02T08:06:39.874Z,12.52
2023-05-02T08:11:43.415Z,11.98
2023-05-02T08:16:46.922Z,11.32
2023-05-02T08:21:51.780Z,11.35
2023-05-02T08:26:55.121Z,10.40
2023-05-02T08:31:58.674Z,11.57
2023-05-02T08:37:03.414Z,9.90
2023-05-02T08:42:08.927Z,9.88
2023-05-02T08:47:15.031Z,10.23
2023-05-02T08:52:22.307Z,8.33
2023-05-02T08:57:26.509Z,8.43
2023-05-02T09:02:46.255Z,8.25
2023-05-02T09:07:54.008Z,8.15
2023-05-02T09:12:57.332Z,8.73
2023-05-02T09:18:00.816Z,9.02
2023-05-02T09:23:05.653Z,8.43
2023-05-02T09:28:09.057Z,7.80
2023-05-02T09:33:14.483Z,6.82
2023-05-02T09:38:22.255Z,6.63
2023-05-02T09:43:25.651Z,6.97
2023-05-02T09:48:30.228Z,6.60
2023-05-02T09:53:44.542Z,5.65
2023-05-02T09:58:47.944Z,6.68
2023-05-02T10:03:51.301Z,6.68
2023-05-02T10:08:56.071Z,5.40
2023-05-02T10:14:00.126Z,5.40
2023-05-02T10:19:08.737Z,6.22
2023-05-02T10:24:14.381Z,5.70
2023-05-02T10:29:18.021Z,6.22
2023-05-02T10:34:21.816Z,6.63
2023-05-02T10:39:26.890Z,6.90
2023-05-02T10:44:35.013Z,6.67
2023-05-02T10:49:51.247Z,6.22
2023-05-02T10:55:17.691Z,5.95
2023-05-02T11:00:24.885Z,6.25
2023-05-02T11:05:29.385Z,7.13
2023-05-02T11:10:34.216Z,6.07
2023-05-02T11:15:57.930Z,5.30
2023-05-02T11:21:32.849Z,5.90
2023-05-02T11:26:39.505Z,5.57
2023-05-02T11:32:05.047Z,6.25
2023-05-02T11:37:15.718Z,6.00
2023-05-02T11:42:33.192Z,5.80
2023-05-02T11:47:36.645Z,4.68
2023-05-02T11:52:40.859Z,4.55
2023-05-02T11:57:45.552Z,5.20
2023-05-02T12:02:49.122Z,5.47
2023-05-02T12:07:53.025Z,5.93
2023-05-02T12:13:06.019Z,5.28
2023-05-02T12:18:09.962Z,5.50
2023-05-02T12:23:13.629Z,5.10
2023-05-02T12:28:19.566Z,4.73
2023-05-02T12:33:22.893Z,5.00
2023-05-02T12:38:26.976Z,4.68
2023-05-02T12:43:47.189Z,5.05
2023-05-02T12:49:03.352Z,4.80
2023-05-02T12:54:07.208Z,4.07
2023-05-02T12:59:26.991Z,3.93
2023-05-02T13:04:37.450Z,3.23
2023-05-02T13:09:40.845Z,3.05
2023-05-02T13:14:45.786Z,3.60
2023-05-02T13:20:01.475Z,4.45
2023-05-02T13:25:06.556Z,4.82
2023-05-02T13:30:13.007Z,5.05
2023-05-02T13:35:16.971Z,4.22
2023-05-02T13:40:20.949Z,3.83
2023-05-02T13:45:25.740Z,5.63
2023-05-02T13:50:29.184Z,3.70
2023-05-02T13:55:32.574Z,3.67
2023-05-02T14:00:37.338Z,4.60
2023-05-02T14:05:43.667Z,3.80
2023-05-02T14:10:47.154Z,3.33
2023-05-02T14:15:51.898Z,2.90
2023-05-02T14:20:55.601Z,3.53
2023-05-02T14:25:58.970Z,3.17
2023-05-02T14:31:03.837Z,3.63
2023-05-02T14:36:07.405Z,3.05
2023-05-02T14:41:11.317Z,3.60
2023-05-02T14:46:16.500Z,3.17
2023-05-02T14:51:19.900Z,2.97
2023-05-02T14:56:23.526Z,2.85
2023-05-02T15:01:29.179Z,2.50
2023-05-02T15:06:32.815Z,3.20
2023-05-02T15:11:36.843Z,2.60
2023-05-02T15:16:41.577Z,3.73
2023-05-02T15:21:45.240Z,3.35
2023-05-02T15:26:49.332Z,2.57
2023-05-02T15:31:54.754Z,2.05
2023-05-02T15:37:01.286Z,3.10
2023-05-02T15:42:05.792Z,3.53
2023-05-02T15:47:10.555Z,2.85
2023-05-02T15:52:14.264Z,3.67
2023-05-02T15:57:17.759Z,3.00
2023-05-02T16:02:22.937Z,3.10
2023-05-02T16:07:26.467Z,4.03
2023-05-02T16:12:29.835Z,5.55
2023-05-02T16:17:34.571Z,7.20
2023-05-02T16:22:37.984Z,7.10
2023-05-02T16:27:41.370Z,7.20
2023-05-02T16:32:46.382Z,8.20
2023-05-02T16:37:50.173Z,9.15
2023-05-02T16:42:56.448Z,8.67
2023-05-02T16:48:01.214Z,7.57
2023-05-02T16:53:05.455Z,7.78
2023-05-02T16:58:09.535Z,6.60
2023-05-02T17:03:14.895Z,6.50
2023-05-02T17:08:18.942Z,7.30
2023-05-02T17:13:22.453Z,6.82
2023-05-02T17:18:27.560Z,6.93
2023-05-02T17:23:31.036Z,7.60
2023-05-02T17:28:36.725Z,7.22
2023-05-02T17:33:42.323Z,7.10
2023-05-02T17:38:45.851Z,5.10
2023-05-02T17:43:49.666Z,9.93
2023-05-02T17:48:54.391Z,9.63
2023-05-02T17:53:57.715Z,9.02
2023-05-02T17:59:01.634Z,8.85
2023-05-02T18:04:06.696Z,7.97
2023-05-02T18:09:10.122Z,7.80
2023-05-02T18:14:16.497Z,7.97
2023-05-02T18:19:23.454Z,9.63
2023-05-02T18:24:26.993Z,15.32
2023-05-02T18:29:31.263Z,18.50
2023-05-02T18:34:38.466Z,12.15
2023-05-02T18:39:42.513Z,13.80
2023-05-02T18:44:45.832Z,42.25
2023-05-02T18:49:50.623Z,20.50
2023-05-02T18:54:53.961Z,12.85
2023-05-02T18:59:58.923Z,12.25
2023-05-02T19:05:06.832Z,16.27
2023-05-02T19:10:11.329Z,17.48
2023-05-02T19:15:16.237Z,10.00
2023-05-02T19:20:21.214Z,8.75
2023-05-02T19:25:24.681Z,10.53
2023-05-02T19:30:28.087Z,10.02
2023-05-02T19:35:35.332Z,9.13
2023-05-02T19:40:38.624Z,9.63
2023-05-02T19:45:42.035Z,10.45
2023-05-02T19:50:46.889Z,10.27
2023-05-02T19:55:50.548Z,8.90
2023-05-02T20:00:53.887Z,9.60
2023-05-02T20:05:58.844Z,8.98
2023-05-02T20:11:02.335Z,9.10
2023-05-02T20:16:06.861Z,8.68
2023-05-02T20:21:11.563Z,9.13
2023-05-02T20:26:16.488Z,9.53
2023-05-02T20:31:19.820Z,10.02
2023-05-02T20:36:24.660Z,9.93
2023-05-02T20:41:28.274Z,9.77
2023-05-02T20:46:36.082Z,9.23
2023-05-02T20:51:40.996Z,8.90
2023-05-02T20:56:44.951Z,8.85
2023-05-02T21:01:48.835Z,9.32
2023-05-02T21:06:55.116Z,10.80
2023-05-02T21:11:58.509Z,9.83
2023-05-02T21:17:02.037Z,11.13
2023-05-02T21:22:07.065Z,12.43
2023-05-02T21:27:10.548Z,13.00
2023-05-02T21:32:14.181Z,16.77
2023-05-02T21:37:19.058Z,18.17
2023-05-02T21:42:22.673Z,16.63
2023-05-02T21:47:26.086Z,15.38
2023-05-02T21:52:31.880Z,16.27
2023-05-02T21:57:35.357Z,15.10
2023-05-02T22:02:39.916Z,18.65
2023-05-02T22:07:44.800Z,18.90
2023-05-02T22:12:48.446Z,17.20
2023-05-02T22:17:52.274Z,16.10
2023-05-02T22:22:57.256Z,15.45
2023-05-02T22:28:03.446Z,15.48
2023-05-02T22:33:07.619Z,13.80
2023-05-02T22:38:16.642Z,15.83
2023-05-02T22:43:20.180Z,12.98
2023-05-02T22:48:23.570Z,10.70
2023-05-02T22:53:28.423Z,11.33
2023-05-02T22:58:31.775Z,14.18
2023-05-02T23:03:35.309Z,13.05
2023-05-02T23:08:40.379Z,13.50
2023-05-02T23:13:43.852Z,13.40
2023-05-02T23:18:48.587Z,12.30
2023-05-02T23:23:53.487Z,13.55
2023-05-02T23:28:56.923Z,13.53
2023-05-02T23:34:01.821Z,13.98
2023-05-02T23:39:06.797Z,13.03
2023-05-02T23:44:10.428Z,13.63
2023-05-02T23:49:13.960Z,13.33
2023-05-02T23:54:18.833Z,12.17
2023-05-02T23:59:22.507Z,12.38
